createdAt,value
2018-11-23T00:00:21.886Z,802.00
2018-11-23T00:01:22.391Z,802.00
2018-11-23T00:02:22.774Z,802.00
2018-11-23T00:03:23.156Z,802.00
2018-11-23T00:04:23.547Z,802.00
2018-11-23T00:05:23.928Z,802.00
2018-11-23T00:06:24.327Z,802.00
2018-11-23T00:07:24.704Z,802.00
2018-11-23T00:08:25.617Z,802.00
2018-11-23T00:09:25.974Z,802.00
2018-11-23T00:10:26.708Z,802.00
2018-11-23T00:11:26.521Z,802.00
2018-11-23T00:12:27.668Z,802.00
2018-11-23T00:13:28.128Z,802.00
2018-11-23T00:14:28.456Z,802.00
2018-11-23T00:15:28.915Z,802.00
2018-11-23T00:16:29.336Z,805.00
2018-11-23T00:17:28.805Z,805.00
2018-11-23T00:18:30.351Z,807.00
2018-11-23T00:19:30.157Z,805.00
2018-11-23T00:20:31.936Z,805.00
2018-11-23T00:21:31.515Z,805.00
2018-11-23T00:22:33.200Z,805.00
2018-11-23T00:23:32.750Z,805.00
2018-11-23T00:24:34.344Z,802.00
2018-11-23T00:25:33.737Z,805.00
2018-11-23T00:26:35.106Z,805.00
2018-11-23T00:27:35.670Z,805.00
2018-11-23T00:28:36.211Z,806.00
2018-11-23T00:29:36.635Z,807.00
2018-11-23T00:30:37.136Z,808.00
2018-11-23T00:31:37.759Z,807.00
2018-11-23T00:32:38.264Z,806.00
2018-11-23T00:33:38.682Z,806.00
2018-11-23T00:34:39.176Z,806.00
2018-11-23T00:35:39.850Z,805.00
2018-11-23T00:35:48.352Z,804.00
2018-11-23T00:36:49.341Z,804.00
2018-11-23T00:37:49.837Z,805.00
2018-11-23T00:38:50.324Z,805.00
2018-11-23T00:39:49.423Z,805.00
2018-11-23T00:40:51.160Z,805.00
2018-11-23T00:41:50.944Z,804.00
2018-11-23T00:42:52.410Z,802.00
2018-11-23T00:43:52.849Z,805.00
2018-11-23T00:44:53.241Z,802.00
2018-11-23T00:45:53.664Z,802.00
2018-11-23T00:46:54.289Z,805.00
2018-11-23T00:47:54.897Z,804.00
2018-11-23T00:48:55.453Z,804.00
2018-11-23T00:49:56.091Z,802.00
2018-11-23T00:50:56.515Z,804.00
2018-11-23T00:51:56.053Z,802.00
2018-11-23T00:52:57.517Z,802.00
2018-11-23T00:53:57.993Z,802.00
2018-11-23T00:54:58.413Z,802.00
2018-11-23T00:55:58.875Z,805.00
2018-11-23T00:56:59.254Z,802.00
2018-11-23T00:57:59.650Z,805.00
2018-11-23T00:59:00.048Z,806.00
2018-11-23T01:00:00.477Z,805.00
2018-11-23T01:01:01.080Z,805.00
2018-11-23T01:02:00.675Z,805.00
2018-11-23T01:03:02.033Z,804.00
2018-11-23T01:04:03.006Z,805.00
2018-11-23T01:05:03.361Z,805.00
2018-11-23T01:06:04.329Z,805.00
2018-11-23T01:07:05.295Z,802.00
2018-11-23T01:08:05.688Z,804.00
2018-11-23T01:09:06.232Z,805.00
2018-11-23T01:10:05.386Z,802.00
2018-11-23T01:11:07.398Z,802.00
2018-11-23T01:12:08.197Z,805.00
2018-11-23T01:13:08.623Z,805.00
2018-11-23T01:14:08.988Z,805.00
2018-11-23T01:15:09.429Z,805.00
2018-11-23T01:16:09.776Z,805.00
2018-11-23T01:17:10.523Z,805.00
2018-11-23T01:18:11.089Z,804.00
2018-11-23T01:19:11.783Z,804.00
2018-11-23T01:20:12.490Z,804.00
2018-11-23T01:21:12.994Z,802.00
2018-11-23T01:22:13.401Z,806.00
2018-11-23T01:23:14.278Z,805.00
2018-11-23T01:24:14.806Z,805.00
2018-11-23T01:24:23.210Z,804.00
2018-11-23T01:25:24.502Z,805.00
2018-11-23T01:26:25.151Z,806.00
2018-11-23T01:27:25.658Z,806.00
2018-11-23T01:28:26.070Z,805.00
2018-11-23T01:29:26.944Z,805.00
2018-11-23T01:30:27.499Z,805.00
2018-11-23T01:31:28.198Z,804.00
2018-11-23T01:32:28.946Z,804.00
2018-11-23T01:33:29.415Z,802.00
2018-11-23T01:34:29.830Z,804.00
2018-11-23T01:35:29.484Z,805.00
2018-11-23T01:36:30.980Z,805.00
2018-11-23T01:37:31.742Z,804.00
2018-11-23T01:38:32.068Z,804.00
2018-11-23T01:39:32.583Z,802.00
2018-11-23T01:40:33.077Z,805.00
2018-11-23T01:41:33.484Z,805.00
2018-11-23T01:42:34.357Z,805.00
2018-11-23T01:43:34.777Z,806.00
2018-11-23T01:44:35.108Z,808.00
2018-11-23T01:45:35.523Z,806.00
2018-11-23T01:46:36.130Z,806.00
2018-11-23T01:47:35.501Z,806.00
2018-11-23T01:48:36.837Z,806.00
2018-11-23T01:49:37.304Z,806.00
2018-11-23T01:50:37.673Z,806.00
2018-11-23T01:51:38.080Z,807.00
2018-11-23T01:52:38.481Z,806.00
2018-11-23T01:53:38.917Z,805.00
2018-11-23T01:54:39.744Z,805.00
2018-11-23T01:55:40.496Z,805.00
2018-11-23T01:56:40.903Z,805.00
2018-11-23T01:57:40.307Z,805.00
2018-11-23T01:58:41.655Z,805.00
2018-11-23T01:59:42.198Z,805.00
2018-11-23T02:00:42.569Z,804.00
2018-11-23T02:01:43.009Z,804.00
2018-11-23T02:02:43.844Z,804.00
2018-11-23T02:03:44.296Z,802.00
2018-11-23T02:04:44.662Z,802.00
2018-11-23T02:05:45.276Z,804.00
2018-11-23T02:06:45.740Z,802.00
2018-11-23T02:07:45.308Z,802.00
2018-11-23T02:08:46.896Z,802.00
2018-11-23T02:09:47.263Z,802.00
2018-11-23T02:10:47.690Z,805.00
2018-11-23T02:11:48.030Z,806.00
2018-11-23T02:11:58.036Z,806.00
2018-11-23T02:12:58.786Z,806.00
2018-11-23T02:13:58.132Z,805.00
2018-11-23T02:14:59.598Z,806.00
2018-11-23T02:16:00.055Z,806.00
2018-11-23T02:17:00.592Z,807.00
2018-11-23T02:18:00.985Z,807.00
2018-11-23T02:19:01.732Z,808.00
2018-11-23T02:20:01.151Z,808.00
2018-11-23T02:21:02.586Z,807.00
2018-11-23T02:22:03.123Z,807.00
2018-11-23T02:23:03.513Z,807.00
2018-11-23T02:24:04.040Z,810.00
2018-11-23T02:25:04.519Z,808.00
2018-11-23T02:26:04.904Z,808.00
2018-11-23T02:27:05.461Z,811.00
2018-11-23T02:28:05.576Z,810.00
2018-11-23T02:29:06.109Z,808.00
2018-11-23T02:30:06.698Z,808.00
2018-11-23T02:31:07.363Z,807.00
2018-11-23T02:32:07.746Z,807.00
2018-11-23T02:33:08.255Z,807.00
2018-11-23T02:34:08.585Z,806.00
2018-11-23T02:35:08.954Z,806.00
2018-11-23T02:36:09.297Z,806.00
2018-11-23T02:37:09.832Z,806.00
2018-11-23T02:38:09.263Z,806.00
2018-11-23T02:39:10.050Z,807.00
2018-11-23T02:40:10.592Z,807.00
2018-11-23T02:41:12.080Z,807.00
2018-11-23T02:42:12.660Z,806.00
2018-11-23T02:43:13.041Z,806.00
2018-11-23T02:44:13.485Z,806.00
2018-11-23T02:45:14.119Z,805.00
2018-11-23T02:46:15.053Z,805.00
2018-11-23T02:47:15.615Z,805.00
2018-11-23T02:48:16.180Z,807.00
2018-11-23T02:49:16.668Z,806.00
2018-11-23T02:50:17.009Z,807.00
2018-11-23T02:51:16.334Z,808.00
2018-11-23T02:52:17.761Z,808.00
2018-11-23T02:53:18.536Z,807.00
2018-11-23T02:54:18.066Z,806.00
2018-11-23T02:55:19.633Z,807.00
2018-11-23T02:56:20.345Z,807.00
2018-11-23T02:57:20.711Z,806.00
2018-11-23T02:58:21.156Z,806.00
2018-11-23T02:59:23.938Z,806.00
2018-11-23T03:00:21.222Z,806.00
2018-11-23T03:00:29.278Z,806.00
2018-11-23T03:01:30.674Z,806.00
2018-11-23T03:02:31.094Z,806.00
2018-11-23T03:03:31.462Z,806.00
2018-11-23T03:04:32.302Z,806.00
2018-11-23T03:05:32.663Z,805.00
2018-11-23T03:06:33.120Z,806.00
2018-11-23T03:07:33.637Z,806.00
2018-11-23T03:08:33.992Z,805.00
2018-11-23T03:09:34.450Z,805.00
2018-11-23T03:10:34.799Z,805.00
2018-11-23T03:11:35.327Z,806.00
2018-11-23T03:12:35.809Z,807.00
2018-11-23T03:13:36.218Z,806.00
2018-11-23T03:14:37.228Z,806.00
2018-11-23T03:15:36.213Z,806.00
2018-11-23T03:16:37.666Z,806.00
2018-11-23T03:17:38.178Z,805.00
2018-11-23T03:18:38.696Z,805.00
2018-11-23T03:19:39.271Z,805.00
2018-11-23T03:20:40.103Z,805.00
2018-11-23T03:21:40.701Z,805.00
2018-11-23T03:22:41.382Z,805.00
2018-11-23T03:23:40.749Z,805.00
2018-11-23T03:24:42.189Z,805.00
2018-11-23T03:25:42.715Z,805.00
2018-11-23T03:26:43.291Z,804.00
2018-11-23T03:27:43.691Z,805.00
2018-11-23T03:28:43.112Z,805.00
2018-11-23T03:29:43.952Z,804.00
2018-11-23T03:30:45.373Z,805.00
2018-11-23T03:31:45.113Z,805.00
2018-11-23T03:32:46.465Z,802.00
2018-11-23T03:33:47.025Z,804.00
2018-11-23T03:34:47.404Z,805.00
2018-11-23T03:35:48.071Z,805.00
2018-11-23T03:36:48.456Z,805.00
2018-11-23T03:37:48.824Z,804.00
2018-11-23T03:38:49.173Z,805.00
2018-11-23T03:39:49.567Z,805.00
2018-11-23T03:40:49.993Z,804.00
2018-11-23T03:41:50.422Z,805.00
2018-11-23T03:42:51.044Z,805.00
2018-11-23T03:43:51.575Z,806.00
2018-11-23T03:44:52.296Z,806.00
2018-11-23T03:45:52.666Z,806.00
2018-11-23T03:46:00.994Z,806.00
2018-11-23T03:47:02.457Z,805.00
2018-11-23T03:48:02.979Z,805.00
2018-11-23T03:49:03.381Z,805.00
2018-11-23T03:50:03.745Z,805.00
2018-11-23T03:51:04.108Z,805.00
2018-11-23T03:52:04.468Z,806.00
2018-11-23T03:53:05.148Z,806.00
2018-11-23T03:54:05.821Z,805.00
2018-11-23T03:55:06.615Z,805.00
2018-11-23T03:56:07.004Z,805.00
2018-11-23T03:57:07.755Z,806.00
2018-11-23T03:58:08.280Z,807.00
2018-11-23T03:59:08.664Z,808.00
2018-11-23T04:00:09.159Z,808.00
2018-11-23T04:01:10.022Z,808.00
2018-11-23T04:02:10.424Z,809.00
2018-11-23T04:03:10.770Z,810.00
2018-11-23T04:04:11.106Z,811.00
2018-11-23T04:05:11.470Z,813.00
2018-11-23T04:06:11.913Z,812.00
2018-11-23T04:07:12.425Z,811.00
2018-11-23T04:08:13.246Z,811.00
2018-11-23T04:09:13.692Z,810.00
2018-11-23T04:10:14.068Z,808.00
2018-11-23T04:11:15.043Z,807.00
2018-11-23T04:12:15.592Z,808.00
2018-11-23T04:13:16.045Z,810.00
2018-11-23T04:14:16.599Z,810.00
2018-11-23T04:15:16.817Z,808.00
2018-11-23T04:16:17.241Z,807.00
2018-11-23T04:17:17.811Z,807.00
2018-11-23T04:18:18.655Z,806.00
2018-11-23T04:19:19.378Z,806.00
2018-11-23T04:20:20.022Z,806.00
2018-11-23T04:21:20.365Z,806.00
2018-11-23T04:22:20.750Z,806.00
2018-11-23T04:23:21.087Z,806.00
2018-11-23T04:24:21.766Z,807.00
2018-11-23T04:25:22.160Z,807.00
2018-11-23T04:26:24.739Z,807.00
2018-11-23T04:27:22.283Z,806.00
2018-11-23T04:28:24.186Z,806.00
2018-11-23T04:29:24.556Z,806.00
2018-11-23T04:30:25.353Z,806.00
2018-11-23T04:31:26.178Z,807.00
2018-11-23T04:31:38.295Z,806.00
2018-11-23T04:32:37.899Z,807.00
2018-11-23T04:33:39.787Z,807.00
2018-11-23T04:34:40.207Z,807.00
2018-11-23T04:35:40.431Z,810.00
2018-11-23T04:36:40.822Z,809.00
2018-11-23T04:37:41.382Z,809.00
2018-11-23T04:38:41.807Z,810.00
2018-11-23T04:39:42.388Z,811.00
2018-11-23T04:40:42.955Z,810.00
2018-11-23T04:41:46.498Z,809.00
2018-11-23T04:42:43.302Z,808.00
2018-11-23T04:43:45.149Z,808.00
2018-11-23T04:44:45.576Z,807.00
2018-11-23T04:45:46.089Z,808.00
2018-11-23T04:46:46.808Z,808.00
2018-11-23T04:47:47.407Z,808.00
2018-11-23T04:48:47.465Z,808.00
2018-11-23T04:49:46.841Z,808.00
2018-11-23T04:50:48.347Z,809.00
2018-11-23T04:51:48.903Z,809.00
2018-11-23T04:52:49.259Z,808.00
2018-11-23T04:53:49.661Z,808.00
2018-11-23T04:54:50.593Z,807.00
2018-11-23T04:55:51.437Z,807.00
2018-11-23T04:56:51.880Z,807.00
2018-11-23T04:57:53.749Z,807.00
2018-11-23T04:58:51.805Z,807.00
2018-11-23T04:59:53.250Z,807.00
2018-11-23T05:00:53.858Z,807.00
2018-11-23T05:01:54.605Z,806.00
2018-11-23T05:02:55.015Z,806.00
2018-11-23T05:03:55.620Z,806.00
2018-11-23T05:04:56.042Z,806.00
2018-11-23T05:05:56.530Z,806.00
2018-11-23T05:06:57.009Z,806.00
2018-11-23T05:07:57.425Z,806.00
2018-11-23T05:08:57.945Z,806.00
2018-11-23T05:09:58.436Z,806.00
2018-11-23T05:10:59.327Z,808.00
2018-11-23T05:11:59.645Z,812.00
2018-11-23T05:13:00.135Z,812.00
2018-11-23T05:14:00.850Z,813.00
2018-11-23T05:15:01.381Z,811.00
2018-11-23T05:16:01.787Z,808.00
2018-11-23T05:17:02.087Z,807.00
2018-11-23T05:18:02.622Z,807.00
2018-11-23T05:18:11.978Z,807.00
2018-11-23T05:19:11.764Z,807.00
2018-11-23T05:20:12.112Z,807.00
2018-11-23T05:21:12.681Z,807.00
2018-11-23T05:22:13.106Z,806.00
2018-11-23T05:23:13.496Z,807.00
2018-11-23T05:24:13.999Z,807.00
2018-11-23T05:25:14.500Z,807.00
2018-11-23T05:26:14.899Z,807.00
2018-11-23T05:27:15.357Z,808.00
2018-11-23T05:28:15.717Z,807.00
2018-11-23T05:29:16.198Z,806.00
2018-11-23T05:30:16.707Z,806.00
2018-11-23T05:31:17.003Z,806.00
2018-11-23T05:32:17.424Z,810.00
2018-11-23T05:33:17.657Z,808.00
2018-11-23T05:34:18.308Z,808.00
2018-11-23T05:35:18.801Z,810.00
2018-11-23T05:36:19.458Z,808.00
2018-11-23T05:37:20.004Z,807.00
2018-11-23T05:38:20.409Z,807.00
2018-11-23T05:39:20.905Z,808.00
2018-11-23T05:40:21.653Z,810.00
2018-11-23T05:41:22.138Z,810.00
2018-11-23T05:42:22.480Z,807.00
2018-11-23T05:43:23.220Z,808.00
2018-11-23T05:44:23.586Z,807.00
2018-11-23T05:45:24.045Z,807.00
2018-11-23T05:46:24.062Z,807.00
2018-11-23T05:47:24.530Z,806.00
2018-11-23T05:48:26.911Z,806.00
2018-11-23T05:49:24.674Z,807.00
2018-11-23T05:50:26.433Z,807.00
2018-11-23T05:51:26.832Z,807.00
2018-11-23T05:52:27.313Z,806.00
2018-11-23T05:53:27.677Z,807.00
2018-11-23T05:54:28.014Z,807.00
2018-11-23T05:55:28.784Z,807.00
2018-11-23T05:56:29.203Z,807.00
2018-11-23T05:57:29.617Z,807.00
2018-11-23T05:58:30.053Z,807.00
2018-11-23T05:59:30.644Z,808.00
2018-11-23T06:00:31.476Z,807.00
2018-11-23T06:01:31.887Z,807.00
2018-11-23T06:02:32.196Z,807.00
2018-11-23T06:03:32.555Z,808.00
2018-11-23T06:04:33.282Z,809.00
2018-11-23T06:04:41.732Z,808.00
2018-11-23T06:05:43.327Z,811.00
2018-11-23T06:06:42.677Z,809.00
2018-11-23T06:07:44.127Z,810.00
2018-11-23T06:08:44.536Z,808.00
2018-11-23T06:09:44.928Z,810.00
2018-11-23T06:10:45.919Z,810.00
2018-11-23T06:11:46.596Z,809.00
2018-11-23T06:12:46.845Z,808.00
2018-11-23T06:13:47.240Z,810.00
2018-11-23T06:14:47.534Z,808.00
2018-11-23T06:15:48.223Z,811.00
2018-11-23T06:16:48.585Z,811.00
2018-11-23T06:17:48.900Z,810.00
2018-11-23T06:18:49.279Z,811.00
2018-11-23T06:19:49.894Z,809.00
2018-11-23T06:20:50.549Z,809.00
2018-11-23T06:21:50.898Z,807.00
2018-11-23T06:22:51.267Z,807.00
2018-11-23T06:23:51.810Z,807.00
2018-11-23T06:24:52.314Z,807.00
2018-11-23T06:25:52.760Z,806.00
2018-11-23T06:26:53.537Z,806.00
2018-11-23T06:27:54.155Z,806.00
2018-11-23T06:28:54.596Z,806.00
2018-11-23T06:29:54.904Z,806.00
2018-11-23T06:30:55.303Z,807.00
2018-11-23T06:31:55.799Z,806.00
2018-11-23T06:32:56.439Z,806.00
2018-11-23T06:33:57.196Z,806.00
2018-11-23T06:34:57.611Z,806.00
2018-11-23T06:35:57.663Z,806.00
2018-11-23T06:36:58.153Z,805.00
2018-11-23T06:37:58.706Z,806.00
2018-11-23T06:38:59.135Z,806.00
2018-11-23T06:39:59.818Z,806.00
2018-11-23T06:41:00.238Z,806.00
2018-11-23T06:42:00.588Z,806.00
2018-11-23T06:43:01.136Z,806.00
2018-11-23T06:44:01.799Z,806.00
2018-11-23T06:45:02.348Z,806.00
2018-11-23T06:46:02.877Z,806.00
2018-11-23T06:47:02.225Z,806.00
2018-11-23T06:48:03.533Z,806.00
2018-11-23T06:49:05.123Z,806.00
2018-11-23T06:50:04.886Z,806.00
2018-11-23T06:51:05.545Z,806.00
2018-11-23T06:52:06.392Z,806.00
2018-11-23T06:52:20.343Z,805.00
2018-11-23T06:53:21.663Z,806.00
2018-11-23T06:54:22.047Z,806.00
2018-11-23T06:55:22.459Z,805.00
2018-11-23T06:56:23.213Z,806.00
2018-11-23T06:57:23.704Z,806.00
2018-11-23T06:58:24.193Z,807.00
2018-11-23T06:59:24.595Z,807.00
2018-11-23T07:00:24.955Z,808.00
2018-11-23T07:01:25.120Z,810.00
2018-11-23T07:02:25.708Z,811.00
2018-11-23T07:03:26.212Z,811.00
2018-11-23T07:04:25.957Z,810.00
2018-11-23T07:05:25.986Z,810.00
2018-11-23T07:06:27.468Z,808.00
2018-11-23T07:07:26.860Z,808.00
2018-11-23T07:08:28.364Z,807.00
2018-11-23T07:09:28.853Z,808.00
2018-11-23T07:10:29.211Z,808.00
2018-11-23T07:11:30.095Z,808.00
2018-11-23T07:12:29.169Z,807.00
2018-11-23T07:13:29.769Z,807.00
2018-11-23T07:14:31.317Z,807.00
2018-11-23T07:15:32.045Z,806.00
2018-11-23T07:16:32.437Z,806.00
2018-11-23T07:17:32.869Z,807.00
2018-11-23T07:18:33.307Z,807.00
2018-11-23T07:19:33.685Z,806.00
2018-11-23T07:20:34.262Z,806.00
2018-11-23T07:21:34.621Z,806.00
2018-11-23T07:22:35.044Z,806.00
2018-11-23T07:23:35.457Z,806.00
2018-11-23T07:24:35.813Z,806.00
2018-11-23T07:25:36.229Z,808.00
2018-11-23T07:26:36.877Z,807.00
2018-11-23T07:27:37.489Z,807.00
2018-11-23T07:28:37.697Z,807.00
2018-11-23T07:29:38.298Z,806.00
2018-11-23T07:30:38.655Z,807.00
2018-11-23T07:31:39.001Z,808.00
2018-11-23T07:32:39.604Z,807.00
2018-11-23T07:33:40.431Z,807.00
2018-11-23T07:34:41.136Z,808.00
2018-11-23T07:35:41.476Z,808.00
2018-11-23T07:36:42.017Z,808.00
2018-11-23T07:37:42.407Z,807.00
2018-11-23T07:38:42.909Z,808.00
2018-11-23T07:39:43.406Z,810.00
2018-11-23T07:39:51.737Z,809.00
2018-11-23T07:40:53.098Z,811.00
2018-11-23T07:41:53.474Z,811.00
2018-11-23T07:42:53.860Z,811.00
2018-11-23T07:43:54.306Z,812.00
2018-11-23T07:44:54.724Z,811.00
2018-11-23T07:45:55.043Z,812.00
2018-11-23T07:46:55.972Z,811.00
2018-11-23T07:47:56.349Z,809.00
2018-11-23T07:48:56.771Z,808.00
2018-11-23T07:49:57.295Z,808.00
2018-11-23T07:50:57.643Z,810.00
2018-11-23T07:51:58.016Z,810.00
2018-11-23T07:52:58.061Z,811.00
2018-11-23T07:53:58.911Z,810.00
2018-11-23T07:54:59.252Z,810.00
2018-11-23T07:55:59.637Z,810.00
2018-11-23T07:56:59.977Z,810.00
2018-11-23T07:58:00.341Z,808.00
2018-11-23T07:59:00.828Z,808.00
2018-11-23T08:00:01.182Z,807.00
2018-11-23T08:01:01.870Z,808.00
2018-11-23T08:02:02.496Z,807.00
2018-11-23T08:03:03.023Z,807.00
2018-11-23T08:04:03.485Z,807.00
2018-11-23T08:05:03.853Z,808.00
2018-11-23T08:06:04.143Z,807.00
2018-11-23T08:07:04.532Z,807.00
2018-11-23T08:08:04.898Z,808.00
2018-11-23T08:09:05.507Z,808.00
2018-11-23T08:10:05.999Z,807.00
2018-11-23T08:11:05.339Z,807.00
2018-11-23T08:12:07.883Z,806.00
2018-11-23T08:13:07.312Z,806.00
2018-11-23T08:14:07.818Z,806.00
2018-11-23T08:15:08.329Z,808.00
2018-11-23T08:16:09.755Z,807.00
2018-11-23T08:17:09.260Z,806.00
2018-11-23T08:18:09.641Z,806.00
2018-11-23T08:19:09.974Z,806.00
2018-11-23T08:20:10.276Z,805.00
2018-11-23T08:21:10.684Z,806.00
2018-11-23T08:22:11.207Z,806.00
2018-11-23T08:23:11.620Z,806.00
2018-11-23T08:24:12.127Z,805.00
2018-11-23T08:25:12.592Z,806.00
2018-11-23T08:26:13.050Z,805.00
2018-11-23T08:26:21.358Z,805.00
2018-11-23T08:27:22.942Z,805.00
2018-11-23T08:28:23.327Z,804.00
2018-11-23T08:29:23.819Z,805.00
2018-11-23T08:30:24.266Z,802.00
2018-11-23T08:31:24.785Z,804.00
2018-11-23T08:32:25.239Z,802.00
2018-11-23T08:33:25.961Z,805.00
2018-11-23T08:34:26.279Z,805.00
2018-11-23T08:35:26.733Z,805.00
2018-11-23T08:36:27.700Z,805.00
2018-11-23T08:37:28.312Z,805.00
2018-11-23T08:38:29.777Z,805.00
2018-11-23T08:39:29.541Z,805.00
2018-11-23T08:40:29.832Z,805.00
2018-11-23T08:41:30.600Z,805.00
2018-11-23T08:42:31.008Z,805.00
2018-11-23T08:43:31.065Z,805.00
2018-11-23T08:44:31.465Z,805.00
2018-11-23T08:45:31.851Z,805.00
2018-11-23T08:46:32.467Z,805.00
2018-11-23T08:47:32.767Z,805.00
2018-11-23T08:48:33.197Z,804.00
2018-11-23T08:49:33.945Z,805.00
2018-11-23T08:50:34.444Z,805.00
2018-11-23T08:51:34.582Z,805.00
2018-11-23T08:52:34.636Z,805.00
2018-11-23T08:53:34.009Z,805.00
2018-11-23T08:54:35.579Z,805.00
2018-11-23T08:55:35.947Z,804.00
2018-11-23T08:56:36.311Z,805.00
2018-11-23T08:57:35.889Z,805.00
2018-11-23T08:58:37.483Z,804.00
2018-11-23T08:59:38.179Z,805.00
2018-11-23T09:00:38.557Z,804.00
2018-11-23T09:01:38.868Z,805.00
2018-11-23T09:02:39.524Z,804.00
2018-11-23T09:03:39.899Z,804.00
2018-11-23T09:04:40.566Z,802.00
2018-11-23T09:05:41.302Z,802.00
2018-11-23T09:06:41.948Z,802.00
2018-11-23T09:07:42.386Z,802.00
2018-11-23T09:08:42.650Z,802.00
2018-11-23T09:09:43.430Z,802.00
2018-11-23T09:10:43.745Z,805.00
2018-11-23T09:11:44.057Z,805.00
2018-11-23T09:12:44.751Z,805.00
2018-11-23T09:12:53.642Z,805.00
2018-11-23T09:13:54.318Z,804.00
2018-11-23T09:14:55.065Z,804.00
2018-11-23T09:15:55.555Z,804.00
2018-11-23T09:16:56.380Z,802.00
2018-11-23T09:17:56.875Z,802.00
2018-11-23T09:18:57.283Z,802.00
2018-11-23T09:19:57.364Z,802.00
2018-11-23T09:20:57.947Z,802.00
2018-11-23T09:21:58.325Z,802.00
2018-11-23T09:22:58.616Z,802.00
2018-11-23T09:23:59.028Z,801.00
2018-11-23T09:24:58.325Z,802.00
2018-11-23T09:25:59.668Z,802.00
2018-11-23T09:26:59.772Z,802.00
2018-11-23T09:28:00.618Z,802.00
2018-11-23T09:29:00.975Z,802.00
2018-11-23T09:30:01.311Z,802.00
2018-11-23T09:31:01.988Z,802.00
2018-11-23T09:32:02.585Z,802.00
2018-11-23T09:33:03.215Z,802.00
2018-11-23T09:34:03.686Z,802.00
2018-11-23T09:35:04.093Z,801.00
2018-11-23T09:36:03.372Z,802.00
2018-11-23T09:37:04.730Z,801.00
2018-11-23T09:38:05.157Z,801.00
2018-11-23T09:39:05.735Z,801.00
2018-11-23T09:40:06.009Z,801.00
2018-11-23T09:41:06.464Z,801.00
2018-11-23T09:42:07.004Z,801.00
2018-11-23T09:43:07.411Z,801.00
2018-11-23T09:44:07.768Z,801.00
2018-11-23T09:45:08.364Z,801.00
2018-11-23T09:46:08.778Z,801.00
2018-11-23T09:47:10.215Z,801.00
2018-11-23T09:48:08.769Z,801.00
2018-11-23T09:49:10.304Z,801.00
2018-11-23T09:50:10.624Z,801.00
2018-11-23T09:51:11.052Z,801.00
2018-11-23T09:52:11.440Z,801.00
2018-11-23T09:53:11.037Z,802.00
2018-11-23T09:54:12.411Z,801.00
2018-11-23T09:55:12.893Z,801.00
2018-11-23T09:56:13.435Z,801.00
2018-11-23T09:57:13.913Z,801.00
2018-11-23T09:58:14.015Z,801.00
2018-11-23T09:59:14.468Z,801.00
2018-11-23T09:59:22.852Z,801.00
2018-11-23T10:00:24.202Z,801.00
2018-11-23T10:01:24.626Z,801.00
2018-11-23T10:02:25.043Z,801.00
2018-11-23T10:03:25.572Z,801.00
2018-11-23T10:04:26.048Z,801.00
2018-11-23T10:05:25.578Z,801.00
2018-11-23T10:06:27.140Z,801.00
2018-11-23T10:07:26.381Z,801.00
2018-11-23T10:08:27.863Z,801.00
2018-11-23T10:09:27.413Z,801.00
2018-11-23T10:10:28.952Z,801.00
2018-11-23T10:11:29.432Z,801.00
2018-11-23T10:12:29.797Z,801.00
2018-11-23T10:13:30.292Z,800.00
2018-11-23T10:14:30.625Z,801.00
2018-11-23T10:15:31.336Z,801.00
2018-11-23T10:16:32.098Z,800.00
2018-11-23T10:17:32.561Z,801.00
2018-11-23T10:18:33.285Z,800.00
2018-11-23T10:19:33.742Z,802.00
2018-11-23T10:20:34.193Z,805.00
2018-11-23T10:21:34.644Z,802.00
2018-11-23T10:22:35.027Z,801.00
2018-11-23T10:23:35.933Z,801.00
2018-11-23T10:24:36.226Z,801.00
2018-11-23T10:25:36.558Z,801.00
2018-11-23T10:26:37.399Z,798.00
2018-11-23T10:27:37.681Z,801.00
2018-11-23T10:28:38.093Z,801.00
2018-11-23T10:29:38.624Z,801.00
2018-11-23T10:30:38.044Z,801.00
2018-11-23T10:31:39.482Z,802.00
2018-11-23T10:32:39.841Z,801.00
2018-11-23T10:33:39.878Z,802.00
2018-11-23T10:34:40.346Z,802.00
2018-11-23T10:35:40.760Z,802.00
2018-11-23T10:36:41.258Z,802.00
2018-11-23T10:37:41.689Z,802.00
2018-11-23T10:38:42.055Z,800.00
2018-11-23T10:39:42.553Z,801.00
2018-11-23T10:40:42.806Z,801.00
2018-11-23T10:41:43.192Z,801.00
2018-11-23T10:42:43.494Z,800.00
2018-11-23T10:43:43.812Z,800.00
2018-11-23T10:44:44.509Z,800.00
2018-11-23T10:44:52.877Z,799.00
2018-11-23T10:45:54.197Z,800.00
2018-11-23T10:46:54.859Z,800.00
2018-11-23T10:47:55.449Z,800.00
2018-11-23T10:48:55.885Z,800.00
2018-11-23T10:49:56.247Z,800.00
2018-11-23T10:50:56.627Z,800.00
2018-11-23T10:51:55.710Z,799.00
2018-11-23T10:52:57.139Z,798.00
2018-11-23T10:53:57.534Z,798.00
2018-11-23T10:54:57.938Z,798.00
2018-11-23T10:55:58.266Z,800.00
2018-11-23T10:56:58.662Z,800.00
2018-11-23T10:57:58.078Z,800.00
2018-11-23T10:58:59.766Z,801.00
2018-11-23T11:00:00.107Z,801.00
2018-11-23T11:01:00.572Z,801.00
2018-11-23T11:02:00.947Z,801.00
2018-11-23T11:03:01.318Z,800.00
2018-11-23T11:04:01.706Z,801.00
2018-11-23T11:05:02.110Z,800.00
2018-11-23T11:06:02.515Z,799.00
2018-11-23T11:07:03.128Z,801.00
2018-11-23T11:08:03.674Z,800.00
2018-11-23T11:09:04.070Z,798.00
2018-11-23T11:10:04.727Z,798.00
2018-11-23T11:11:05.266Z,798.00
2018-11-23T11:12:05.612Z,798.00
2018-11-23T11:13:06.059Z,801.00
2018-11-23T11:14:06.391Z,801.00
2018-11-23T11:15:06.771Z,801.00
2018-11-23T11:16:07.451Z,800.00
2018-11-23T11:17:07.778Z,801.00
2018-11-23T11:18:07.811Z,800.00
2018-11-23T11:19:08.248Z,800.00
2018-11-23T11:20:08.950Z,801.00
2018-11-23T11:21:09.565Z,800.00
2018-11-23T11:22:10.094Z,800.00
2018-11-23T11:23:10.464Z,799.00
2018-11-23T11:24:10.817Z,799.00
2018-11-23T11:25:11.205Z,798.00
2018-11-23T11:26:11.579Z,798.00
2018-11-23T11:27:11.894Z,800.00
2018-11-23T11:28:12.489Z,802.00
2018-11-23T11:29:12.845Z,804.00
2018-11-23T11:30:13.199Z,801.00
2018-11-23T11:30:21.566Z,802.00
2018-11-23T11:31:22.943Z,805.00
2018-11-23T11:32:23.542Z,805.00
2018-11-23T11:33:24.112Z,804.00
2018-11-23T11:34:24.470Z,805.00
2018-11-23T11:35:24.890Z,805.00
2018-11-23T11:36:25.369Z,805.00
2018-11-23T11:37:26.208Z,805.00
2018-11-23T11:38:26.582Z,806.00
2018-11-23T11:39:26.922Z,807.00
2018-11-23T11:40:27.388Z,806.00
2018-11-23T11:41:27.761Z,807.00
2018-11-23T11:42:28.124Z,807.00
2018-11-23T11:43:28.520Z,807.00
2018-11-23T11:44:28.965Z,807.00
2018-11-23T11:45:29.280Z,806.00
2018-11-23T11:46:29.732Z,805.00
2018-11-23T11:47:30.277Z,804.00
2018-11-23T11:48:30.812Z,805.00
2018-11-23T11:49:31.287Z,802.00
2018-11-23T11:50:31.628Z,801.00
2018-11-23T11:51:32.076Z,805.00
2018-11-23T11:52:32.410Z,805.00
2018-11-23T11:53:32.899Z,806.00
2018-11-23T11:54:33.208Z,806.00
2018-11-23T11:55:33.596Z,804.00
2018-11-23T11:56:34.029Z,802.00
2018-11-23T11:57:34.615Z,802.00
2018-11-23T11:58:34.936Z,801.00
2018-11-23T11:59:35.419Z,802.00
2018-11-23T12:00:35.940Z,802.00
2018-11-23T12:01:36.327Z,802.00
2018-11-23T12:02:36.754Z,801.00
2018-11-23T12:03:37.200Z,800.00
2018-11-23T12:04:37.590Z,800.00
2018-11-23T12:05:38.349Z,798.00
2018-11-23T12:06:38.913Z,800.00
2018-11-23T12:07:39.468Z,798.00
2018-11-23T12:08:39.465Z,798.00
2018-11-23T12:09:39.880Z,797.00
2018-11-23T12:10:40.411Z,797.00
2018-11-23T12:11:40.942Z,796.00
2018-11-23T12:12:41.552Z,796.00
2018-11-23T12:13:41.942Z,796.00
2018-11-23T12:14:42.308Z,796.00
2018-11-23T12:15:42.749Z,796.00
2018-11-23T12:15:51.702Z,796.00
2018-11-23T12:16:53.052Z,797.00
2018-11-23T12:17:53.943Z,796.00
2018-11-23T12:18:54.549Z,796.00
2018-11-23T12:19:55.077Z,795.00
2018-11-23T12:20:55.700Z,796.00